sensor_id;sensor_type;location;lat;lon;timestamp;pressure;altitude;pressure_sealevel;temperature;humidity
11542;BME280;5827;49.482;7.716;2022-12-07T00:00:12;98951.00;;;4.66;100.00
11542;BME280;5827;49.482;7.716;2022-12-07T00:02:15;98951.38;;;4.56;100.00
11542;BME280;5827;49.482;7.716;2022-12-07T00:04:18;98938.31;;;4.61;100.00
11542;BME280;5827;49.482;7.716;2022-12-07T00:06:20;98941.19;;;4.59;100.00
11542;BME280;5827;49.482;7.716;2022-12-07T00:08:22;98940.56;;;4.57;100.00
11542;BME280;5827;49.482;7.716;2022-12-07T00:10:23;98940.59;;;4.64;100.00
11542;BME280;5827;49.482;7.716;2022-12-07T00:12:25;98937.34;;;4.69;100.00
11542;BME280;5827;49.482;7.716;2022-12-07T00:14:26;98934.25;;;4.58;100.00
11542;BME280;5827;49.482;7.716;2022-12-07T00:16:30;98926.28;;;4.65;100.00
11542;BME280;5827;49.482;7.716;2022-12-07T00:18:33;98920.38;;;4.63;100.00
11542;BME280;5827;49.482;7.716;2022-12-07T00:20:34;98928.34;;;4.63;100.00
11542;BME280;5827;49.482;7.716;2022-12-07T00:22:36;98932.03;;;4.69;100.00
11542;BME280;5827;49.482;7.716;2022-12-07T00:24:37;98919.78;;;4.68;100.00
11542;BME280;5827;49.482;7.716;2022-12-07T00:26:40;98929.75;;;4.66;100.00
11542;BME280;5827;49.482;7.716;2022-12-07T00:28:45;98932.41;;;4.66;100.00
11542;BME280;5827;49.482;7.716;2022-12-07T00:30:46;98935.88;;;4.66;100.00
11542;BME280;5827;49.482;7.716;2022-12-07T00:32:48;98934.88;;;4.74;100.00
11542;BME280;5827;49.482;7.716;2022-12-07T00:34:51;98937.97;;;4.77;100.00
11542;BME280;5827;49.482;7.716;2022-12-07T00:36:52;98935.09;;;4.79;100.00
11542;BME280;5827;49.482;7.716;2022-12-07T00:38:54;98934.47;;;4.70;100.00
11542;BME280;5827;49.482;7.716;2022-12-07T00:40:56;98931.59;;;4.72;100.00
11542;BME280;5827;49.482;7.716;2022-12-07T00:42:58;98935.69;;;4.68;100.00
11542;BME280;5827;49.482;7.716;2022-12-07T00:45:00;98916.28;;;4.61;100.00
11542;BME280;5827;49.482;7.716;2022-12-07T00:47:01;98927.09;;;4.59;100.00
11542;BME280;5827;49.482;7.716;2022-12-07T00:49:03;98921.97;;;4.51;100.00
11542;BME280;5827;49.482;7.716;2022-12-07T00:51:07;98930.16;;;4.56;100.00
11542;BME280;5827;49.482;7.716;2022-12-07T00:53:08;98914.84;;;4.58;100.00
11542;BME280;5827;49.482;7.716;2022-12-07T00:55:10;98917.31;;;4.59;100.00
11542;BME280;5827;49.482;7.716;2022-12-07T00:57:11;98914.66;;;4.59;100.00
11542;BME280;5827;49.482;7.716;2022-12-07T00:59:13;98917.06;;;4.41;100.00
11542;BME280;5827;49.482;7.716;2022-12-07T01:01:15;98920.53;;;4.48;100.00
11542;BME280;5827;49.482;7.716;2022-12-07T01:03:17;98919.53;;;4.49;100.00
11542;BME280;5827;49.482;7.716;2022-12-07T01:05:18;98911.56;;;4.56;100.00
11542;BME280;5827;49.482;7.716;2022-12-07T01:07:21;98903.19;;;4.52;100.00
11542;BME280;5827;49.482;7.716;2022-12-07T01:09:23;98904.81;;;4.53;100.00
11542;BME280;5827;49.482;7.716;2022-12-07T01:11:27;98901.13;;;4.48;100.00
11542;BME280;5827;49.482;7.716;2022-12-07T01:13:29;98902.97;;;4.47;100.00
11542;BME280;5827;49.482;7.716;2022-12-07T01:15:30;98902.56;;;4.37;100.00
11542;BME280;5827;49.482;7.716;2022-12-07T01:17:32;98896.81;;;4.33;100.00
11542;BME280;5827;49.482;7.716;2022-12-07T01:19:34;98900.28;;;4.34;100.00
11542;BME280;5827;49.482;7.716;2022-12-07T01:21:35;98902.34;;;4.32;100.00
11542;BME280;5827;49.482;7.716;2022-12-07T01:23:39;98905.41;;;4.36;100.00
11542;BME280;5827;49.482;7.716;2022-12-07T01:25:41;98905.00;;;4.32;100.00
11542;BME280;5827;49.482;7.716;2022-12-07T01:27:42;98901.75;;;4.37;100.00
11542;BME280;5827;49.482;7.716;2022-12-07T01:29:44;98908.25;;;4.34;100.00
11542;BME280;5827;49.482;7.716;2022-12-07T01:31:48;98910.28;;;4.32;100.00
11542;BME280;5827;49.482;7.716;2022-12-07T01:33:52;98915.38;;;4.33;100.00
11542;BME280;5827;49.482;7.716;2022-12-07T01:35:54;98917.81;;;4.28;100.00
11542;BME280;5827;49.482;7.716;2022-12-07T01:37:55;98916.63;;;4.31;100.00
11542;BME280;5827;49.482;7.716;2022-12-07T01:39:58;98919.66;;;4.28;100.00
11542;BME280;5827;49.482;7.716;2022-12-07T01:42:00;98922.31;;;4.28;100.00
11542;BME280;5827;49.482;7.716;2022-12-07T01:44:11;98916.63;;;4.31;100.00
11542;BME280;5827;49.482;7.716;2022-12-07T01:46:12;98916.78;;;4.23;100.00
11542;BME280;5827;49.482;7.716;2022-12-07T01:48:16;98914.63;;;3.98;100.00
11542;BME280;5827;49.482;7.716;2022-12-07T01:50:20;98912.84;;;4.05;100.00
11542;BME280;5827;49.482;7.716;2022-12-07T01:52:24;98910.56;;;4.02;100.00
11542;BME280;5827;49.482;7.716;2022-12-07T01:54:27;98919.00;;;4.13;100.00
11542;BME280;5827;49.482;7.716;2022-12-07T01:56:30;98909.75;;;3.95;100.00
11542;BME280;5827;49.482;7.716;2022-12-07T01:58:33;98915.50;;;4.05;100.00
11542;BME280;5827;49.482;7.716;2022-12-07T02:00:35;98913.81;;;3.98;100.00
11542;BME280;5827;49.482;7.716;2022-12-07T02:02:39;98921.81;;;4.04;100.00
11542;BME280;5827;49.482;7.716;2022-12-07T02:04:42;98910.34;;;3.97;100.00
11542;BME280;5827;49.482;7.716;2022-12-07T02:06:45;98904.88;;;3.99;100.00
11542;BME280;5827;49.482;7.716;2022-12-07T02:08:48;98905.69;;;3.99;100.00
11542;BME280;5827;49.482;7.716;2022-12-07T02:10:50;98896.03;;;3.85;100.00
11542;BME280;5827;49.482;7.716;2022-12-07T02:12:55;98900.75;;;3.90;100.00
11542;BME280;5827;49.482;7.716;2022-12-07T02:14:58;98893.63;;;3.90;100.00
11542;BME280;5827;49.482;7.716;2022-12-07T02:17:09;98895.25;;;3.91;100.00
11542;BME280;5827;49.482;7.716;2022-12-07T02:22:18;98885.25;;;3.87;100.00
11542;BME280;5827;49.482;7.716;2022-12-07T02:24:47;98886.00;;;4.22;100.00
11542;BME280;5827;49.482;7.716;2022-12-07T02:27:00;98887.34;;;4.04;100.00
11542;BME280;5827;49.482;7.716;2022-12-07T02:29:13;98890.44;;;4.08;100.00
11542;BME280;5827;49.482;7.716;2022-12-07T02:31:19;98888.19;;;4.12;100.00
11542;BME280;5827;49.482;7.716;2022-12-07T02:33:28;98889.41;;;4.09;100.00
11542;BME280;5827;49.482;7.716;2022-12-07T02:35:33;98885.75;;;4.17;100.00
11542;BME280;5827;49.482;7.716;2022-12-07T02:37:41;98891.03;;;4.10;100.00
11542;BME280;5827;49.482;7.716;2022-12-07T02:39:48;98892.88;;;4.10;100.00
11542;BME280;5827;49.482;7.716;2022-12-07T02:41:55;98882.50;;;4.15;100.00
11542;BME280;5827;49.482;7.716;2022-12-07T02:44:02;98878.22;;;4.14;100.00
11542;BME280;5827;49.482;7.716;2022-12-07T02:46:10;98879.94;;;3.93;100.00
11542;BME280;5827;49.482;7.716;2022-12-07T02:48:16;98873.94;;;4.19;100.00
11542;BME280;5827;49.482;7.716;2022-12-07T02:50:18;98878.22;;;4.14;100.00
11542;BME280;5827;49.482;7.716;2022-12-07T02:52:20;98880.09;;;4.26;100.00
11542;BME280;5827;49.482;7.716;2022-12-07T02:54:22;98877.41;;;4.20;100.00
11542;BME280;5827;49.482;7.716;2022-12-07T02:56:27;98875.38;;;4.22;100.00
11542;BME280;5827;49.482;7.716;2022-12-07T02:58:40;98873.72;;;4.21;100.00
11542;BME280;5827;49.482;7.716;2022-12-07T03:00:53;98873.72;;;4.21;100.00
11542;BME280;5827;49.482;7.716;2022-12-07T03:03:00;98874.78;;;4.26;100.00
11542;BME280;5827;49.482;7.716;2022-12-07T03:05:16;98875.59;;;4.33;100.00
11542;BME280;5827;49.482;7.716;2022-12-07T03:07:28;98876.25;;;4.36;100.00
11542;BME280;5827;49.482;7.716;2022-12-07T03:09:35;98869.88;;;4.30;100.00
11542;BME280;5827;49.482;7.716;2022-12-07T03:11:42;98863.38;;;4.32;100.00
11542;BME280;5827;49.482;7.716;2022-12-07T03:13:49;98865.00;;;4.27;100.00
11542;BME280;5827;49.482;7.716;2022-12-07T03:15:57;98867.38;;;4.08;100.00
11542;BME280;5827;49.482;7.716;2022-12-07T03:18:02;98859.22;;;4.10;100.00
11542;BME280;5827;49.482;7.716;2022-12-07T03:20:07;98857.81;;;4.21;100.00
11542;BME280;5827;49.482;7.716;2022-12-07T03:22:12;98856.38;;;4.12;100.00
11542;BME280;5827;49.482;7.716;2022-12-07T03:24:17;98853.72;;;4.05;100.00
11542;BME280;5827;49.482;7.716;2022-12-07T03:26:21;98848.63;;;4.17;100.00
11542;BME280;5827;49.482;7.716;2022-12-07T03:28:28;98850.03;;;4.06;100.00
11542;BME280;5827;49.482;7.716;2022-12-07T03:30:36;98849.84;;;4.14;100.00
11542;BME280;5827;49.482;7.716;2022-12-07T03:32:43;98849.03;;;4.14;100.00
11542;BME280;5827;49.482;7.716;2022-12-07T03:34:52;98853.31;;;4.21;100.00
11542;BME280;5827;49.482;7.716;2022-12-07T03:36:57;98854.19;;;4.22;100.00
11542;BME280;5827;49.482;7.716;2022-12-07T03:39:04;98858.41;;;4.10;100.00
11542;BME280;5827;49.482;7.716;2022-12-07T03:41:14;98859.22;;;4.17;100.00
11542;BME280;5827;49.482;7.716;2022-12-07T03:43:18;98858.44;;;4.23;100.00
11542;BME280;5827;49.482;7.716;2022-12-07T03:45:24;98871.31;;;4.32;100.00
11542;BME280;5827;49.482;7.716;2022-12-07T03:47:33;98859.72;;;4.40;100.00
11542;BME280;5827;49.482;7.716;2022-12-07T03:49:42;98871.53;;;4.44;100.00
11542;BME280;5827;49.482;7.716;2022-12-07T03:51:50;98867.69;;;4.47;100.00
11542;BME280;5827;49.482;7.716;2022-12-07T03:53:57;98868.88;;;4.44;100.00
11542;BME280;5827;49.482;7.716;2022-12-07T03:56:01;98870.50;;;4.39;100.00
11542;BME280;5827;49.482;7.716;2022-12-07T03:58:05;98857.69;;;4.42;100.00
11542;BME280;5827;49.482;7.716;2022-12-07T04:00:10;98870.31;;;4.53;100.00
11542;BME280;5827;49.482;7.716;2022-12-07T04:02:13;98867.88;;;4.52;100.00
11542;BME280;5827;49.482;7.716;2022-12-07T04:04:15;98868.69;;;4.52;100.00
11542;BME280;5827;49.482;7.716;2022-12-07T04:06:17;98869.94;;;4.50;100.00
11542;BME280;5827;49.482;7.716;2022-12-07T04:08:20;98867.28;;;4.50;100.00
11542;BME280;5827;49.482;7.716;2022-12-07T04:10:21;98863.59;;;4.44;100.00
11542;BME280;5827;49.482;7.716;2022-12-07T04:12:23;98858.50;;;4.36;100.00
11542;BME280;5827;49.482;7.716;2022-12-07T04:14:24;98858.91;;;4.46;100.00
11542;BME280;5827;49.482;7.716;2022-12-07T04:16:26;98847.47;;;4.52;100.00
11542;BME280;5827;49.482;7.716;2022-12-07T04:18:27;98848.72;;;4.50;100.00
11542;BME280;5827;49.482;7.716;2022-12-07T04:20:29;98863.59;;;4.44;100.00
11542;BME280;5827;49.482;7.716;2022-12-07T04:22:31;98865.84;;;4.47;100.00
11542;BME280;5827;49.482;7.716;2022-12-07T04:24:34;98860.94;;;4.44;100.00
11542;BME280;5827;49.482;7.716;2022-12-07T04:26:36;98855.22;;;4.47;100.00
11542;BME280;5827;49.482;7.716;2022-12-07T04:28:37;98866.22;;;4.31;100.00
11542;BME280;5827;49.482;7.716;2022-12-07T04:30:38;98857.84;;;4.34;100.00
11542;BME280;5827;49.482;7.716;2022-12-07T04:32:40;98857.88;;;4.47;100.00
11542;BME280;5827;49.482;7.716;2022-12-07T04:34:41;98849.53;;;4.50;100.00
11542;BME280;5827;49.482;7.716;2022-12-07T04:36:43;98849.72;;;4.49;100.00
11542;BME280;5827;49.482;7.716;2022-12-07T04:38:45;98851.75;;;4.47;100.00
11542;BME280;5827;49.482;7.716;2022-12-07T04:40:48;98852.97;;;4.44;100.00
11542;BME280;5827;49.482;7.716;2022-12-07T04:42:49;98854.19;;;4.48;100.00
11542;BME280;5827;49.482;7.716;2022-12-07T04:44:51;98855.03;;;4.42;100.00
11542;BME280;5827;49.482;7.716;2022-12-07T04:46:53;98855.22;;;4.47;100.00
11542;BME280;5827;49.482;7.716;2022-12-07T04:48:55;98858.69;;;4.48;100.00
11542;BME280;5827;49.482;7.716;2022-12-07T04:50:57;98845.66;;;4.46;100.00
11542;BME280;5827;49.482;7.716;2022-12-07T04:52:58;98847.06;;;4.49;100.00
11542;BME280;5827;49.482;7.716;2022-12-07T04:55:02;98840.13;;;4.48;100.00
11542;BME280;5827;49.482;7.716;2022-12-07T04:57:05;98844.03;;;4.58;100.00
11542;BME280;5827;49.482;7.716;2022-12-07T04:59:10;98850.75;;;4.54;100.00
11542;BME280;5827;49.482;7.716;2022-12-07T05:01:17;98850.75;;;4.54;100.00
11542;BME280;5827;49.482;7.716;2022-12-07T05:03:19;98837.69;;;4.59;100.00
11542;BME280;5827;49.482;7.716;2022-12-07T05:05:21;98840.53;;;4.58;100.00
11542;BME280;5827;49.482;7.716;2022-12-07T05:07:24;98842.38;;;4.57;100.00
11542;BME280;5827;49.482;7.716;2022-12-07T05:09:25;98846.88;;;4.57;100.00
11542;BME280;5827;49.482;7.716;2022-12-07T05:11:27;98844.63;;;4.41;100.00
11542;BME280;5827;49.482;7.716;2022-12-07T05:13:42;98853.19;;;4.43;100.00
11542;BME280;5827;49.482;7.716;2022-12-07T05:15:43;98850.53;;;4.43;100.00
11542;BME280;5827;49.482;7.716;2022-12-07T05:17:45;98857.28;;;4.45;100.00
11542;BME280;5827;49.482;7.716;2022-12-07T05:19:46;98850.31;;;4.38;100.00
11542;BME280;5827;49.482;7.716;2022-12-07T05:21:48;98847.59;;;4.11;100.00
11542;BME280;5827;49.482;7.716;2022-12-07T05:23:50;98843.56;;;4.35;100.00
11542;BME280;5827;49.482;7.716;2022-12-07T05:25:52;98847.88;;;4.36;100.00
11542;BME280;5827;49.482;7.716;2022-12-07T05:27:54;98849.50;;;4.37;100.00
11542;BME280;5827;49.482;7.716;2022-12-07T05:29:57;98854.38;;;4.33;100.00
11542;BME280;5827;49.482;7.716;2022-12-07T05:31:59;98846.25;;;4.42;100.00
11542;BME280;5827;49.482;7.716;2022-12-07T05:34:00;98854.19;;;4.48;100.00
11542;BME280;5827;49.482;7.716;2022-12-07T05:36:02;98846.06;;;4.50;100.00
11542;BME280;5827;49.482;7.716;2022-12-07T05:38:05;98849.91;;;4.47;100.00
11542;BME280;5827;49.482;7.716;2022-12-07T05:40:08;98851.56;;;4.42;100.00
11542;BME280;5827;49.482;7.716;2022-12-07T05:42:10;98842.19;;;4.46;100.00
11542;BME280;5827;49.482;7.716;2022-12-07T05:44:14;98843.19;;;4.45;100.00
11542;BME280;5827;49.482;7.716;2022-12-07T05:46:17;98842.56;;;4.43;100.00
11542;BME280;5827;49.482;7.716;2022-12-07T05:48:18;98846.66;;;4.45;100.00
11542;BME280;5827;49.482;7.716;2022-12-07T05:50:20;98840.53;;;4.38;100.00
11542;BME280;5827;49.482;7.716;2022-12-07T05:52:22;98836.66;;;4.41;100.00
11542;BME280;5827;49.482;7.716;2022-12-07T05:54:24;98837.84;;;4.25;100.00
11542;BME280;5827;49.482;7.716;2022-12-07T05:56:25;98836.84;;;4.32;100.00
11542;BME280;5827;49.482;7.716;2022-12-07T05:58:27;98844.78;;;4.26;100.00
11542;BME280;5827;49.482;7.716;2022-12-07T06:00:46;98838.09;;;4.37;100.00
11542;BME280;5827;49.482;7.716;2022-12-07T06:02:49;98842.97;;;4.33;100.00
11542;BME280;5827;49.482;7.716;2022-12-07T06:04:51;98843.81;;;4.47;100.00
11542;BME280;5827;49.482;7.716;2022-12-07T06:06:53;98839.09;;;4.42;100.00
11542;BME280;5827;49.482;7.716;2022-12-07T06:08:54;98838.50;;;4.47;100.00
11542;BME280;5827;49.482;7.716;2022-12-07T06:10:56;98843.00;;;4.53;100.00
11542;BME280;5827;49.482;7.716;2022-12-07T06:13:11;98851.56;;;4.42;100.00
11542;BME280;5827;49.482;7.716;2022-12-07T06:15:13;98845.84;;;4.58;100.00
11542;BME280;5827;49.482;7.716;2022-12-07T06:17:15;98846.47;;;4.60;100.00
11542;BME280;5827;49.482;7.716;2022-12-07T06:19:18;98849.56;;;4.64;100.00
11542;BME280;5827;49.482;7.716;2022-12-07T06:21:19;98846.47;;;4.67;100.00
11542;BME280;5827;49.482;7.716;2022-12-07T06:23:21;98851.19;;;4.65;100.00
11542;BME280;5827;49.482;7.716;2022-12-07T06:25:22;98847.91;;;4.69;100.00
11542;BME280;5827;49.482;7.716;2022-12-07T06:27:24;98853.22;;;4.76;100.00
11542;BME280;5827;49.482;7.716;2022-12-07T06:29:26;98860.53;;;4.47;100.00
11542;BME280;5827;49.482;7.716;2022-12-07T06:31:27;98853.22;;;4.49;100.00
11542;BME280;5827;49.482;7.716;2022-12-07T06:33:30;98856.88;;;4.62;100.00
11542;BME280;5827;49.482;7.716;2022-12-07T06:35:33;98850.94;;;4.53;100.00
11542;BME280;5827;49.482;7.716;2022-12-07T06:37:35;98847.66;;;4.44;100.00
11542;BME280;5827;49.482;7.716;2022-12-07T06:39:36;98843.41;;;4.50;100.00
11542;BME280;5827;49.482;7.716;2022-12-07T06:41:39;98852.19;;;4.50;100.00
11542;BME280;5827;49.482;7.716;2022-12-07T06:43:40;98851.38;;;4.50;100.00
11542;BME280;5827;49.482;7.716;2022-12-07T06:45:42;98845.25;;;4.56;100.00
11542;BME280;5827;49.482;7.716;2022-12-07T06:47:44;98847.88;;;4.63;100.00
11542;BME280;5827;49.482;7.716;2022-12-07T06:49:45;98853.81;;;4.65;100.00
11542;BME280;5827;49.482;7.716;2022-12-07T06:51:48;98855.84;;;4.56;100.00
11542;BME280;5827;49.482;7.716;2022-12-07T06:53:50;98856.06;;;4.54;100.00
11542;BME280;5827;49.482;7.716;2022-12-07T06:55:51;98853.00;;;4.64;100.00
11542;BME280;5827;49.482;7.716;2022-12-07T06:57:53;98858.09;;;4.66;100.00
11542;BME280;5827;49.482;7.716;2022-12-07T06:59:54;98851.78;;;4.67;100.00
11542;BME280;5827;49.482;7.716;2022-12-07T07:01:56;98850.16;;;4.66;100.00
11542;BME280;5827;49.482;7.716;2022-12-07T07:03:58;98850.34;;;4.71;100.00
11542;BME280;5827;49.482;7.716;2022-12-07T07:05:59;98851.78;;;4.67;100.00
11542;BME280;5827;49.482;7.716;2022-12-07T07:08:02;98848.28;;;4.46;100.00
11542;BME280;5827;49.482;7.716;2022-12-07T07:10:05;98853.63;;;4.59;100.00
11542;BME280;5827;49.482;7.716;2022-12-07T07:12:07;98853.22;;;4.69;100.00
11542;BME280;5827;49.482;7.716;2022-12-07T07:14:08;98855.47;;;4.59;100.00
11542;BME280;5827;49.482;7.716;2022-12-07T07:16:10;98849.75;;;4.69;100.00
11542;BME280;5827;49.482;7.716;2022-12-07T07:18:11;98862.00;;;4.70;100.00
11542;BME280;5827;49.482;7.716;2022-12-07T07:20:13;98857.91;;;4.74;100.00
11542;BME280;5827;49.482;7.716;2022-12-07T07:22:15;98853.03;;;4.77;100.00
11542;BME280;5827;49.482;7.716;2022-12-07T07:24:18;98854.63;;;4.65;100.00
11542;BME280;5827;49.482;7.716;2022-12-07T07:26:19;98856.69;;;4.70;100.00
11542;BME280;5827;49.482;7.716;2022-12-07T07:28:22;98857.50;;;4.70;100.00
11542;BME280;5827;49.482;7.716;2022-12-07T07:30:23;98856.47;;;4.65;100.00
11542;BME280;5827;49.482;7.716;2022-12-07T07:32:25;98864.84;;;4.75;100.00
11542;BME280;5827;49.482;7.716;2022-12-07T07:34:26;98865.69;;;4.82;100.00
11542;BME280;5827;49.482;7.716;2022-12-07T07:36:28;98863.63;;;4.84;100.00
11542;BME280;5827;49.482;7.716;2022-12-07T07:38:29;98866.06;;;4.85;100.00
11542;BME280;5827;49.482;7.716;2022-12-07T07:40:32;98865.47;;;4.83;100.00
11542;BME280;5827;49.482;7.716;2022-12-07T07:42:34;98865.28;;;4.78;100.00
11542;BME280;5827;49.482;7.716;2022-12-07T07:44:36;98868.13;;;4.83;100.00
11542;BME280;5827;49.482;7.716;2022-12-07T07:46:38;98873.22;;;4.85;100.00
11542;BME280;5827;49.482;7.716;2022-12-07T07:48:39;98873.22;;;4.72;100.00
11542;BME280;5827;49.482;7.716;2022-12-07T07:50:41;98873.22;;;4.85;100.00
11542;BME280;5827;49.482;7.716;2022-12-07T07:52:43;98867.72;;;4.73;100.00
11542;BME280;5827;49.482;7.716;2022-12-07T07:54:44;98867.50;;;4.75;100.00
11542;BME280;5827;49.482;7.716;2022-12-07T07:56:47;98867.53;;;4.81;100.00
11542;BME280;5827;49.482;7.716;2022-12-07T07:58:51;98867.31;;;4.70;100.00
11542;BME280;5827;49.482;7.716;2022-12-07T08:00:53;98877.72;;;4.84;100.00
11542;BME280;5827;49.482;7.716;2022-12-07T08:02:54;98873.44;;;4.83;100.00
11542;BME280;5827;49.482;7.716;2022-12-07T08:04:56;98885.91;;;4.83;100.00
11542;BME280;5827;49.482;7.716;2022-12-07T08:06:57;98881.38;;;4.90;100.00
11542;BME280;5827;49.482;7.716;2022-12-07T08:08:59;98885.69;;;4.78;100.00
11542;BME280;5827;49.482;7.716;2022-12-07T08:11:00;98882.00;;;4.66;100.00
11542;BME280;5827;49.482;7.716;2022-12-07T08:13:03;98883.25;;;4.83;100.00
11542;BME280;5827;49.482;7.716;2022-12-07T08:15:14;98887.72;;;4.89;100.00
11542;BME280;5827;49.482;7.716;2022-12-07T08:17:16;98897.94;;;4.79;100.00
11542;BME280;5827;49.482;7.716;2022-12-07T08:19:17;98884.06;;;4.83;100.00
11542;BME280;5827;49.482;7.716;2022-12-07T08:21:19;98887.34;;;4.92;100.00
11542;BME280;5827;49.482;7.716;2022-12-07T08:23:21;98885.09;;;4.82;100.00
11542;BME280;5827;49.482;7.716;2022-12-07T08:25:22;98886.09;;;4.81;100.00
11542;BME280;5827;49.482;7.716;2022-12-07T08:27:24;98888.16;;;4.86;100.00
11542;BME280;5827;49.482;7.716;2022-12-07T08:29:28;98886.09;;;4.81;100.00
11542;BME280;5827;49.482;7.716;2022-12-07T08:31:30;98891.81;;;4.78;100.00
11542;BME280;5827;49.482;7.716;2022-12-07T08:33:31;98899.75;;;4.72;100.00
11542;BME280;5827;49.482;7.716;2022-12-07T08:35:33;98896.09;;;4.73;100.00
11542;BME280;5827;49.482;7.716;2022-12-07T08:37:35;98896.91;;;4.60;100.00
11542;BME280;5827;49.482;7.716;2022-12-07T08:39:36;98888.75;;;4.75;100.00
11542;BME280;5827;49.482;7.716;2022-12-07T08:41:38;98899.78;;;4.78;100.00
11542;BME280;5827;49.482;7.716;2022-12-07T08:43:40;98892.22;;;4.75;100.00
11542;BME280;5827;49.482;7.716;2022-12-07T08:45:43;98891.81;;;4.78;100.00
11542;BME280;5827;49.482;7.716;2022-12-07T08:47:48;98888.75;;;4.81;100.00
11542;BME280;5827;49.482;7.716;2022-12-07T08:49:53;98898.16;;;4.91;100.00
11542;BME280;5827;49.482;7.716;2022-12-07T08:51:55;98892.84;;;4.91;100.00
11542;BME280;5827;49.482;7.716;2022-12-07T08:53:58;98887.09;;;4.80;100.00
11542;BME280;5827;49.482;7.716;2022-12-07T08:56:01;98880.38;;;4.84;100.00
11542;BME280;5827;49.482;7.716;2022-12-07T08:58:03;98882.41;;;4.89;100.00
11542;BME280;5827;49.482;7.716;2022-12-07T09:00:06;98886.72;;;5.03;100.00
11542;BME280;5827;49.482;7.716;2022-12-07T09:02:09;98875.91;;;4.92;100.00
11542;BME280;5827;49.482;7.716;2022-12-07T09:04:11;98873.25;;;4.92;100.00
11542;BME280;5827;49.482;7.716;2022-12-07T09:06:12;98879.97;;;4.81;100.00
11542;BME280;5827;49.482;7.716;2022-12-07T09:08:14;98874.03;;;4.79;100.00
11542;BME280;5827;49.482;7.716;2022-12-07T09:10:17;98872.41;;;4.78;100.00
11542;BME280;5827;49.482;7.716;2022-12-07T09:12:19;98878.53;;;4.85;100.00
11542;BME280;5827;49.482;7.716;2022-12-07T09:14:20;98880.78;;;4.75;100.00
11542;BME280;5827;49.482;7.716;2022-12-07T09:16:22;98880.38;;;4.65;100.00
11542;BME280;5827;49.482;7.716;2022-12-07T09:18:25;98878.31;;;4.60;100.00
11542;BME280;5827;49.482;7.716;2022-12-07T09:20:26;98877.91;;;4.76;100.00
11542;BME280;5827;49.482;7.716;2022-12-07T09:22:28;98882.81;;;4.66;100.00
11542;BME280;5827;49.482;7.716;2022-12-07T09:24:30;98884.47;;;4.87;100.00
11542;BME280;5827;49.482;7.716;2022-12-07T09:26:31;98887.75;;;4.82;100.00
11542;BME280;5827;49.482;7.716;2022-12-07T09:28:33;98888.75;;;4.88;100.00
11542;BME280;5827;49.482;7.716;2022-12-07T09:30:35;98886.91;;;4.82;100.00
11542;BME280;5827;49.482;7.716;2022-12-07T09:32:36;98897.56;;;4.95;100.00
11542;BME280;5827;49.482;7.716;2022-12-07T09:34:39;98897.34;;;4.97;100.00
11542;BME280;5827;49.482;7.716;2022-12-07T09:36:41;98892.84;;;4.91;100.00
11542;BME280;5827;49.482;7.716;2022-12-07T09:38:43;98894.47;;;4.98;100.00
11542;BME280;5827;49.482;7.716;2022-12-07T09:40:45;98895.69;;;5.16;100.00
11542;BME280;5827;49.482;7.716;2022-12-07T09:42:48;98893.03;;;5.42;100.00
11542;BME280;5827;49.482;7.716;2022-12-07T09:44:51;98900.38;;;5.47;100.00
11542;BME280;5827;49.482;7.716;2022-12-07T09:46:53;98892.81;;;5.50;100.00
11542;BME280;5827;49.482;7.716;2022-12-07T09:48:54;98889.72;;;5.60;100.00
11542;BME280;5827;49.482;7.716;2022-12-07T09:50:59;98892.72;;;5.77;100.00
11542;BME280;5827;49.482;7.716;2022-12-07T09:53:07;98893.16;;;5.67;100.00
11542;BME280;5827;49.482;7.716;2022-12-07T09:55:11;98883.81;;;5.51;100.00
11542;BME280;5827;49.482;7.716;2022-12-07T09:57:13;98882.19;;;5.44;100.00
11542;BME280;5827;49.482;7.716;2022-12-07T09:59:17;98878.31;;;5.46;100.00
11542;BME280;5827;49.482;7.716;2022-12-07T10:01:20;98880.53;;;5.49;100.00
11542;BME280;5827;49.482;7.716;2022-12-07T10:03:23;98878.13;;;5.41;100.00
11542;BME280;5827;49.482;7.716;2022-12-07T10:05:27;98875.66;;;5.46;100.00
11542;BME280;5827;49.482;7.716;2022-12-07T10:07:31;98874.22;;;5.44;100.00
11542;BME280;5827;49.482;7.716;2022-12-07T10:09:33;98869.31;;;5.47;100.00
11542;BME280;5827;49.482;7.716;2022-12-07T10:11:57;98874.66;;;5.41;100.00
11542;BME280;5827;49.482;7.716;2022-12-07T10:14:10;98870.53;;;5.45;100.00
11542;BME280;5827;49.482;7.716;2022-12-07T10:16:31;98872.59;;;5.43;100.00
11542;BME280;5827;49.482;7.716;2022-12-07T10:18:38;98868.28;;;5.35;100.00
11542;BME280;5827;49.482;7.716;2022-12-07T10:20:41;98870.53;;;5.38;100.00
11542;BME280;5827;49.482;7.716;2022-12-07T10:22:57;98865.22;;;5.45;100.00
11542;BME280;5827;49.482;7.716;2022-12-07T10:25:08;98864.59;;;5.49;100.00
11542;BME280;5827;49.482;7.716;2022-12-07T10:27:18;98864.22;;;5.46;100.00
11542;BME280;5827;49.482;7.716;2022-12-07T10:29:23;98859.88;;;5.65;100.00
11542;BME280;5827;49.482;7.716;2022-12-07T10:31:25;98866.19;;;5.70;100.00
11542;BME280;5827;49.482;7.716;2022-12-07T10:33:28;98858.44;;;5.62;100.00
11542;BME280;5827;49.482;7.716;2022-12-07T10:35:30;98859.00;;;5.71;100.00
11542;BME280;5827;49.482;7.716;2022-12-07T10:37:40;98865.78;;;5.73;100.00
11542;BME280;5827;49.482;7.716;2022-12-07T10:39:45;98864.50;;;5.76;100.00
11542;BME280;5827;49.482;7.716;2022-12-07T10:41:54;98860.41;;;5.80;100.00
11542;BME280;5827;49.482;7.716;2022-12-07T10:43:57;98856.56;;;5.69;100.00
11542;BME280;5827;49.482;7.716;2022-12-07T10:48:38;98855.25;;;6.05;100.00
11542;BME280;5827;49.482;7.716;2022-12-07T10:50:58;98850.28;;;6.08;100.00
11542;BME280;5827;49.482;7.716;2022-12-07T10:53:21;98846.81;;;6.15;100.00
11542;BME280;5827;49.482;7.716;2022-12-07T10:55:34;98847.38;;;6.23;100.00
11542;BME280;5827;49.482;7.716;2022-12-07T10:57:47;98843.81;;;6.36;100.00
11542;BME280;5827;49.482;7.716;2022-12-07T11:00:00;98847.03;;;6.45;100.00
11542;BME280;5827;49.482;7.716;2022-12-07T11:02:21;98848.47;;;6.47;100.00
11542;BME280;5827;49.482;7.716;2022-12-07T11:04:33;98837.09;;;6.58;100.00
11542;BME280;5827;49.482;7.716;2022-12-07T11:06:39;98844.53;;;6.50;100.00
11542;BME280;5827;49.482;7.716;2022-12-07T11:09:00;98845.41;;;6.44;100.00